Time;durP1;ratioP1;P1;durP2;ratioP2;P2;SDS_P1;SDS_P2;PMS_P1;PMS_P2;Temp;Humidity;BMP_temperature;BMP_pressure;BME280_temperature;BME280_humidity;BME280_pressure;Samples;Min_cycle;Max_cycle;Signal;HPM_P1;HPM_P2
2020/12/15 00:01:55;;;;;;;9.40;3.83;;;11.50;99.90;;;;;;5055994;28;20210;-86
2020/12/15 00:04:22;;;;;;;8.93;3.90;;;11.50;99.90;;;;;;5054369;28;20188;-86
2020/12/15 00:06:48;;;;;;;9.50;3.90;;;11.50;99.90;;;;;;5087871;28;20240;-85
2020/12/15 00:09:14;;;;;;;10.23;4.13;;;11.40;99.90;;;;;;5050705;28;20198;-87
2020/12/15 00:11:40;;;;;;;10.03;3.93;;;11.40;99.90;;;;;;5089190;28;20200;-86
2020/12/15 00:14:06;;;;;;;11.00;4.33;;;11.40;99.90;;;;;;5035290;28;20662;-86
2020/12/15 00:16:31;;;;;;;11.03;4.33;;;11.40;99.90;;;;;;5071108;28;20194;-87
2020/12/15 00:18:57;;;;;;;11.07;4.57;;;11.40;99.90;;;;;;5041308;28;20300;-86
2020/12/15 00:21:24;;;;;;;10.73;4.27;;;11.40;99.90;;;;;;5072065;28;20217;-86
2020/12/15 00:23:52;;;;;;;9.77;4.50;;;11.50;99.90;;;;;;5055059;28;20657;-86
2020/12/15 00:26:18;;;;;;;10.43;4.20;;;11.60;99.90;;;;;;5038949;28;20236;-86
2020/12/15 00:28:44;;;;;;;9.10;4.27;;;11.50;99.90;;;;;;5044332;28;20180;-86
2020/12/15 00:31:11;;;;;;;7.97;4.20;;;11.50;99.90;;;;;;5054476;28;20185;-86
2020/12/15 00:33:37;;;;;;;9.63;4.60;;;11.50;99.90;;;;;;5036857;28;20181;-87
2020/12/15 00:36:03;;;;;;;11.17;4.10;;;11.40;99.90;;;;;;5075305;28;20265;-86
2020/12/15 00:38:29;;;;;;;9.33;4.40;;;11.50;99.90;;;;;;5038114;28;20202;-86
2020/12/15 00:40:54;;;;;;;9.17;4.03;;;11.40;99.90;;;;;;5054675;28;20235;-87
2020/12/15 00:43:21;;;;;;;7.47;3.83;;;11.50;99.90;;;;;;5036566;28;20637;-87
2020/12/15 00:45:47;;;;;;;8.53;3.97;;;11.50;99.90;;;;;;5051701;28;20191;-87
2020/12/15 00:48:16;;;;;;;9.20;4.50;;;11.60;99.90;;;;;;5038789;28;20640;-87
2020/12/15 00:50:42;;;;;;;9.37;4.10;;;11.70;99.90;;;;;;5056688;28;20251;-87
2020/12/15 00:53:08;;;;;;;9.13;4.00;;;11.60;99.90;;;;;;5037533;28;20177;-88
2020/12/15 00:55:33;;;;;;;9.13;3.60;;;11.70;99.90;;;;;;5052225;28;20204;-88
2020/12/15 00:57:59;;;;;;;10.03;4.67;;;11.60;99.90;;;;;;5036728;28;20620;-87
2020/12/15 01:00:25;;;;;;;10.50;4.20;;;11.70;99.90;;;;;;5040830;28;20212;-88
2020/12/15 01:02:51;;;;;;;8.77;3.97;;;11.70;99.90;;;;;;5052514;28;20189;-87
2020/12/15 01:05:17;;;;;;;8.70;4.00;;;11.70;99.90;;;;;;5054129;28;20199;-87
2020/12/15 01:07:46;;;;;;;8.20;4.07;;;11.70;99.90;;;;;;5039741;28;20225;-87
2020/12/15 01:10:12;;;;;;;8.87;3.77;;;11.80;99.90;;;;;;5039034;28;20327;-87
2020/12/15 01:12:42;;;;;;;10.53;4.23;;;11.80;99.90;;;;;;5038895;28;20636;-87
2020/12/15 01:15:08;;;;;;;9.77;3.90;;;11.70;99.90;;;;;;5036288;28;20211;-87
2020/12/15 01:17:34;;;;;;;9.57;4.27;;;11.80;99.90;;;;;;5032309;28;20199;-88
2020/12/15 01:20:01;;;;;;;9.17;3.90;;;11.80;99.90;;;;;;5049143;28;20183;-87
2020/12/15 01:22:26;;;;;;;8.90;4.10;;;11.70;99.90;;;;;;5038257;28;20178;-87
2020/12/15 01:24:52;;;;;;;9.50;4.33;;;11.70;99.90;;;;;;5036818;28;20261;-87
2020/12/15 01:27:35;;;;;;;9.30;3.70;;;11.80;99.90;;;;;;5040983;28;20225;-88
2020/12/15 01:30:09;;;;;;;13.03;4.23;;;11.70;99.90;;;;;;5055034;28;20183;-88
2020/12/15 01:32:57;;;;;;;9.13;4.00;;;11.80;99.90;;;;;;5055400;28;20209;-87
2020/12/15 01:35:41;;;;;;;9.53;4.00;;;11.80;99.90;;;;;;5043836;28;20191;-87
2020/12/15 01:38:07;;;;;;;7.77;3.90;;;11.80;99.90;;;;;;5036150;28;20198;-87
2020/12/15 01:40:32;;;;;;;8.90;4.10;;;11.80;99.90;;;;;;5057694;28;20182;-87
2020/12/15 01:42:59;;;;;;;8.60;4.17;;;11.90;99.90;;;;;;5056704;28;20191;-88
2020/12/15 01:45:26;;;;;;;9.50;4.13;;;11.90;99.90;;;;;;5039864;28;20186;-87
2020/12/15 01:47:53;;;;;;;8.47;4.03;;;11.90;99.90;;;;;;5045308;28;20182;-87
2020/12/15 01:50:19;;;;;;;8.63;4.23;;;11.90;99.90;;;;;;5067401;28;20183;-88
2020/12/15 01:52:45;;;;;;;8.33;3.97;;;11.90;99.90;;;;;;5054302;28;20209;-88
2020/12/15 01:55:16;;;;;;;8.97;4.53;;;12.00;99.90;;;;;;5053670;28;20271;-88
2020/12/15 01:57:52;;;;;;;8.53;4.27;;;12.00;99.90;;;;;;5037326;28;20207;-88
2020/12/15 02:00:33;;;;;;;10.20;4.40;;;11.90;99.90;;;;;;5052333;28;20605;-88
2020/12/15 02:03:25;;;;;;;8.97;4.40;;;11.90;99.90;;;;;;5054919;28;20219;-87
2020/12/15 02:06:09;;;;;;;9.40;4.00;;;12.00;99.90;;;;;;5058184;28;20237;-87
2020/12/15 02:08:53;;;;;;;9.47;4.30;;;11.90;99.90;;;;;;5039459;28;20277;-88
2020/12/15 02:11:19;;;;;;;10.60;4.50;;;11.90;99.90;;;;;;5037645;28;20270;-88
2020/12/15 02:13:49;;;;;;;9.40;4.50;;;11.90;99.90;;;;;;5038954;28;20620;-88
2020/12/15 02:16:15;;;;;;;10.53;4.60;;;12.00;99.90;;;;;;5036964;28;20184;-88
2020/12/15 02:18:44;;;;;;;9.73;4.67;;;12.00;99.90;;;;;;5036414;28;20289;-88
2020/12/15 02:21:11;;;;;;;10.73;4.30;;;11.80;99.90;;;;;;5068208;28;20179;-87
2020/12/15 02:23:51;;;;;;;9.53;4.20;;;11.90;99.90;;;;;;5042221;28;20187;-87
2020/12/15 02:26:32;;;;;;;10.40;4.50;;;12.00;99.90;;;;;;5068433;28;20245;-87
2020/12/15 02:28:58;;;;;;;10.60;4.63;;;12.10;99.90;;;;;;5057937;28;20606;-87
2020/12/15 02:31:24;;;;;;;11.37;4.53;;;12.10;99.90;;;;;;5057406;28;20199;-88
2020/12/15 02:33:50;;;;;;;12.13;4.30;;;12.20;99.90;;;;;;5073744;28;20229;-88
2020/12/15 02:36:19;;;;;;;8.47;4.27;;;12.20;99.90;;;;;;5040639;28;20176;-87
2020/12/15 02:39:08;;;;;;;9.90;4.50;;;12.30;99.90;;;;;;5043699;28;20210;-86
2020/12/15 02:41:37;;;;;;;8.63;4.47;;;12.30;99.90;;;;;;5044920;28;20608;-87
2020/12/15 02:44:06;;;;;;;13.03;5.57;;;12.30;99.90;;;;;;5041514;28;20182;-87
2020/12/15 02:46:32;;;;;;;11.23;5.00;;;12.20;99.90;;;;;;5057194;28;20647;-87
2020/12/15 02:48:58;;;;;;;9.50;4.73;;;12.20;99.90;;;;;;5037237;28;20188;-88
2020/12/15 02:51:25;;;;;;;10.77;4.83;;;12.10;99.90;;;;;;5070081;28;20233;-88
2020/12/15 02:54:18;;;;;;;10.33;4.97;;;12.20;99.90;;;;;;5043222;28;20652;-88
2020/12/15 02:56:44;;;;;;;11.50;5.40;;;12.20;99.90;;;;;;5057873;28;20665;-88
2020/12/15 02:59:10;;;;;;;11.80;4.57;;;12.10;99.90;;;;;;5042407;28;20204;-87
2020/12/15 03:01:40;;;;;;;9.10;4.73;;;12.00;99.90;;;;;;5039749;28;20538;-87
2020/12/15 03:04:09;;;;;;;10.07;5.00;;;12.10;99.90;;;;;;5090675;28;20175;-87
2020/12/15 03:06:39;;;;;;;10.93;5.20;;;12.00;99.90;;;;;;5050755;28;20198;-88
2020/12/15 03:09:09;;;;;;;9.90;4.93;;;12.00;99.90;;;;;;5072683;28;20193;-87
2020/12/15 03:11:39;;;;;;;10.30;5.00;;;12.00;99.90;;;;;;5047866;28;20172;-88
2020/12/15 03:14:13;;;;;;;9.77;4.73;;;11.90;99.90;;;;;;5058427;28;20187;-87
2020/12/15 03:16:39;;;;;;;13.30;5.70;;;11.80;99.90;;;;;;5038927;28;20266;-88
2020/12/15 03:19:06;;;;;;;11.40;5.30;;;11.90;99.90;;;;;;5060620;28;20248;-89
2020/12/15 03:21:35;;;;;;;8.87;5.30;;;11.90;99.90;;;;;;5075892;28;20178;-89
2020/12/15 03:24:04;;;;;;;11.80;5.10;;;11.90;99.90;;;;;;5039261;28;20181;-92
2020/12/15 03:26:30;;;;;;;13.00;5.30;;;11.70;99.90;;;;;;5057093;28;20246;-89
2020/12/15 03:28:57;;;;;;;10.47;5.30;;;11.60;99.90;;;;;;5038333;28;20690;-88
2020/12/15 03:31:23;;;;;;;10.73;5.10;;;11.60;99.90;;;;;;5056392;28;20255;-88
2020/12/15 03:33:49;;;;;;;9.73;5.40;;;11.60;99.90;;;;;;5038442;28;20256;-88
2020/12/15 03:36:16;;;;;;;12.70;5.60;;;11.70;99.90;;;;;;5056246;28;20173;-88
2020/12/15 03:38:44;;;;;;;11.93;5.33;;;11.80;99.90;;;;;;5039544;28;20221;-88
2020/12/15 03:41:10;;;;;;;9.63;5.20;;;11.70;99.90;;;;;;5038456;28;20213;-88
2020/12/15 03:43:41;;;;;;;12.63;5.70;;;11.70;99.90;;;;;;5058929;28;20255;-88
2020/12/15 03:46:16;;;;;;;9.70;5.07;;;11.80;99.90;;;;;;5059067;28;20277;-88
2020/12/15 03:48:44;;;;;;;9.60;5.00;;;11.80;99.90;;;;;;5034103;28;20180;-88
2020/12/15 03:51:10;;;;;;;9.33;5.20;;;11.80;99.90;;;;;;5071350;28;20189;-88
2020/12/15 03:54:02;;;;;;;10.63;4.87;;;11.80;99.90;;;;;;5059937;28;20187;-88
2020/12/15 03:56:29;;;;;;;8.60;5.00;;;11.90;99.90;;;;;;5039427;28;20272;-88
2020/12/15 03:58:55;;;;;;;9.60;4.70;;;11.80;99.90;;;;;;5052421;28;20289;-87
2020/12/15 04:01:21;;;;;;;9.90;5.33;;;11.70;99.90;;;;;;5040595;28;20183;-88
2020/12/15 04:03:47;;;;;;;9.80;5.23;;;11.60;99.90;;;;;;5035901;28;20230;-87
2020/12/15 04:06:19;;;;;;;9.93;5.20;;;11.60;99.90;;;;;;5056027;28;20247;-87
2020/12/15 04:08:53;;;;;;;10.23;4.93;;;11.70;99.90;;;;;;5042821;28;20190;-87
2020/12/15 04:11:19;;;;;;;11.00;5.37;;;11.70;99.90;;;;;;5038619;28;20232;-88
2020/12/15 04:13:51;;;;;;;9.83;4.93;;;11.70;99.90;;;;;;5039529;28;20279;-90
2020/12/15 04:16:18;;;;;;;10.90;5.20;;;11.80;99.90;;;;;;5053735;28;20193;-87
2020/12/15 04:19:13;;;;;;;10.97;5.17;;;11.70;99.90;;;;;;5052958;28;20344;-87
2020/12/15 04:21:38;;;;;;;13.07;5.37;;;11.70;99.90;;;;;;5039309;28;20281;-88
2020/12/15 04:24:08;;;;;;;10.73;5.27;;;11.70;99.90;;;;;;5055180;28;20194;-88
2020/12/15 04:26:42;;;;;;;11.07;5.37;;;11.70;99.90;;;;;;5041011;28;20225;-88
2020/12/15 04:29:09;;;;;;;12.00;5.33;;;11.70;99.90;;;;;;5039547;28;20533;-88
2020/12/15 04:31:48;;;;;;;12.47;5.70;;;11.70;99.90;;;;;;5068203;28;20178;-89
2020/12/15 04:34:14;;;;;;;10.73;5.00;;;11.60;99.90;;;;;;5072194;28;20182;-88
2020/12/15 04:36:39;;;;;;;11.07;4.90;;;11.60;99.90;;;;;;5070199;28;20214;-88
2020/12/15 04:39:05;;;;;;;8.37;5.03;;;11.60;99.90;;;;;;5038828;28;20202;-88
2020/12/15 04:41:39;;;;;;;13.23;5.70;;;11.60;99.90;;;;;;5042623;28;20173;-89
2020/12/15 04:44:07;;;;;;;12.00;5.40;;;11.70;99.90;;;;;;5038881;28;20179;-88
2020/12/15 04:47:09;;;;;;;11.00;5.40;;;11.70;99.90;;;;;;5029269;28;20173;-87
2020/12/15 04:49:58;;;;;;;12.67;5.07;;;11.60;99.90;;;;;;5034848;28;20190;-87
2020/12/15 04:52:45;;;;;;;11.23;5.50;;;11.60;99.90;;;;;;5055789;28;20174;-87
2020/12/15 04:55:18;;;;;;;10.27;5.30;;;11.50;99.90;;;;;;5087894;28;20717;-87
2020/12/15 04:57:46;;;;;;;9.87;4.33;;;11.50;99.90;;;;;;5035001;28;20200;-87
2020/12/15 05:00:12;;;;;;;11.67;5.30;;;11.50;99.90;;;;;;5038081;28;20269;-87
2020/12/15 05:02:59;;;;;;;10.90;4.93;;;11.60;99.90;;;;;;5053688;28;20181;-87
2020/12/15 05:05:25;;;;;;;10.77;5.57;;;11.60;99.90;;;;;;5052531;28;20194;-87
2020/12/15 05:08:02;;;;;;;10.03;5.43;;;11.50;99.90;;;;;;5052712;28;20208;-87
2020/12/15 05:10:38;;;;;;;9.87;5.03;;;11.50;99.90;;;;;;5052293;28;20276;-87
2020/12/15 05:13:33;;;;;;;11.73;4.97;;;11.60;99.90;;;;;;5040227;28;20203;-88
2020/12/15 05:16:00;;;;;;;10.03;5.20;;;11.50;99.90;;;;;;5046249;28;20181;-87
2020/12/15 05:18:44;;;;;;;10.03;4.80;;;11.50;99.90;;;;;;5084900;28;20206;-87
2020/12/15 05:21:18;;;;;;;10.07;4.70;;;11.50;99.90;;;;;;5090195;28;20174;-87
2020/12/15 05:23:50;;;;;;;9.77;4.40;;;11.60;99.90;;;;;;5054166;28;20208;-87
2020/12/15 05:26:27;;;;;;;10.03;4.67;;;11.50;99.90;;;;;;5069277;28;20225;-87
2020/12/15 05:29:17;;;;;;;15.20;5.07;;;11.60;99.90;;;;;;5038752;28;20180;-87
2020/12/15 05:31:59;;;;;;;9.97;4.60;;;11.60;99.90;;;;;;5043248;28;20258;-87
2020/12/15 05:34:43;;;;;;;9.63;4.40;;;11.60;99.90;;;;;;5038543;28;20219;-88
2020/12/15 05:37:45;;;;;;;10.93;4.80;;;11.50;99.90;;;;;;5045645;28;20762;-88
2020/12/15 05:40:42;;;;;;;9.47;4.77;;;11.60;99.90;;;;;;5040270;28;20203;-87
2020/12/15 05:43:38;;;;;;;10.80;4.10;;;11.70;99.90;;;;;;5055951;28;20193;-88
2020/12/15 05:46:05;;;;;;;9.67;4.20;;;11.70;99.90;;;;;;5040239;28;20177;-88
2020/12/15 05:48:33;;;;;;;12.07;4.30;;;11.80;99.90;;;;;;5068666;28;20183;-88
2020/12/15 05:50:58;;;;;;;9.97;4.03;;;11.80;99.90;;;;;;5065799;28;20240;-88
2020/12/15 05:53:24;;;;;;;10.17;3.60;;;11.70;99.90;;;;;;5037651;28;20270;-88
2020/12/15 05:55:50;;;;;;;13.50;4.00;;;11.70;99.90;;;;;;5036341;28;20183;-86
2020/12/15 05:58:16;;;;;;;7.40;3.07;;;11.80;99.90;;;;;;5051535;28;20205;-87
2020/12/15 06:00:42;;;;;;;9.83;3.60;;;11.70;99.90;;;;;;5073319;28;20645;-88
2020/12/15 06:03:08;;;;;;;8.93;2.97;;;11.50;99.90;;;;;;5041398;28;20227;-88
2020/12/15 06:05:35;;;;;;;8.23;3.00;;;11.50;99.90;;;;;;5043030;28;20173;-87
2020/12/15 06:08:03;;;;;;;9.63;3.37;;;11.60;99.90;;;;;;5042916;28;20198;-87
2020/12/15 06:10:30;;;;;;;6.70;3.10;;;11.50;99.90;;;;;;5050715;28;20273;-88
2020/12/15 06:12:58;;;;;;;5.50;2.70;;;11.60;99.90;;;;;;5040779;28;20305;-87
2020/12/15 06:15:24;;;;;;;8.07;2.70;;;11.50;99.90;;;;;;5058887;28;20204;-87
2020/12/15 06:17:56;;;;;;;7.27;3.00;;;11.40;99.90;;;;;;5057916;28;20209;-87
2020/12/15 06:20:22;;;;;;;5.97;2.67;;;11.40;99.90;;;;;;5055551;28;20180;-87
2020/12/15 06:22:52;;;;;;;6.63;2.70;;;11.40;99.90;;;;;;5053697;28;20209;-88
2020/12/15 06:25:28;;;;;;;10.13;2.90;;;11.40;99.90;;;;;;5055887;28;20256;-87
2020/12/15 06:28:09;;;;;;;6.07;2.70;;;11.60;99.90;;;;;;5072067;28;20226;-87
2020/12/15 06:30:40;;;;;;;8.93;2.93;;;11.70;99.90;;;;;;5058177;28;20252;-87
2020/12/15 06:33:08;;;;;;;6.73;2.77;;;11.80;99.90;;;;;;5045136;28;20181;-88
2020/12/15 06:35:35;;;;;;;9.40;2.57;;;11.80;99.90;;;;;;5039393;28;20535;-88
2020/12/15 06:38:04;;;;;;;6.60;2.43;;;11.90;99.90;;;;;;5056459;28;20540;-88
2020/12/15 06:40:44;;;;;;;7.33;2.57;;;11.90;99.90;;;;;;5053266;28;20168;-88
2020/12/15 06:43:12;;;;;;;6.50;3.10;;;11.80;99.90;;;;;;5054973;28;20433;-88
2020/12/15 06:45:38;;;;;;;5.83;2.60;;;11.80;99.90;;;;;;5072601;28;20173;-87
2020/12/15 06:48:05;;;;;;;4.83;2.40;;;11.80;99.90;;;;;;5037147;28;20548;-86
2020/12/15 06:50:42;;;;;;;6.63;2.73;;;11.80;99.90;;;;;;5058329;28;20717;-87
2020/12/15 06:53:13;;;;;;;4.17;2.30;;;11.80;99.90;;;;;;5057301;28;20228;-87
2020/12/15 06:55:39;;;;;;;11.37;2.97;;;11.70;99.90;;;;;;5072980;28;20191;-87
2020/12/15 06:58:05;;;;;;;6.83;2.67;;;11.80;99.90;;;;;;5054957;28;20213;-86
2020/12/15 07:00:40;;;;;;;7.03;3.00;;;11.80;99.90;;;;;;5054258;28;20552;-87
2020/12/15 07:03:08;;;;;;;7.37;2.90;;;11.90;99.90;;;;;;5073631;28;20275;-87
2020/12/15 07:05:35;;;;;;;7.73;2.47;;;12.00;99.90;;;;;;5042447;28;20610;-87
2020/12/15 07:08:11;;;;;;;6.77;2.83;;;12.10;99.90;;;;;;5090999;28;20187;-87
2020/12/15 07:10:43;;;;;;;6.27;2.80;;;12.20;99.90;;;;;;5067980;28;20186;-87
2020/12/15 07:13:13;;;;;;;7.23;2.70;;;12.30;99.90;;;;;;5086857;28;20192;-87
2020/12/15 07:15:39;;;;;;;6.07;2.87;;;12.30;99.90;;;;;;5052087;28;20251;-86
2020/12/15 07:18:05;;;;;;;6.27;3.10;;;12.30;99.90;;;;;;5072033;28;20207;-88
2020/12/15 07:20:32;;;;;;;7.10;2.67;;;12.40;99.90;;;;;;5040023;28;20257;-87
2020/12/15 07:22:57;;;;;;;7.77;3.07;;;12.50;99.90;;;;;;5041305;28;20596;-86
2020/12/15 07:25:23;;;;;;;6.47;2.90;;;12.30;99.90;;;;;;5055842;28;20175;-87
2020/12/15 07:27:50;;;;;;;7.17;2.93;;;12.20;99.90;;;;;;5056328;28;20298;-87
2020/12/15 07:30:20;;;;;;;6.20;3.20;;;12.10;99.90;;;;;;5040886;28;20191;-87
2020/12/15 07:32:47;;;;;;;5.97;3.00;;;12.10;99.90;;;;;;5042363;28;20189;-87
2020/12/15 07:35:22;;;;;;;6.83;3.27;;;12.00;99.90;;;;;;5041069;28;20207;-87
2020/12/15 07:37:48;;;;;;;7.10;3.20;;;11.90;99.90;;;;;;5089663;28;20211;-86
2020/12/15 07:40:18;;;;;;;7.40;3.47;;;11.80;99.90;;;;;;5054584;28;20234;-87
2020/12/15 07:43:01;;;;;;;8.73;3.33;;;11.80;99.90;;;;;;5055045;28;20184;-87
2020/12/15 07:45:29;;;;;;;6.97;3.50;;;11.80;99.90;;;;;;5050642;28;20174;-87
2020/12/15 07:47:55;;;;;;;8.37;3.97;;;11.80;99.90;;;;;;5055670;28;20182;-87
2020/12/15 07:50:26;;;;;;;12.10;4.80;;;11.90;99.90;;;;;;5057773;28;20188;-87
2020/12/15 07:52:52;;;;;;;7.50;3.50;;;11.80;99.90;;;;;;5053500;28;20296;-87
2020/12/15 07:55:18;;;;;;;7.83;4.23;;;11.90;99.90;;;;;;5040344;28;20732;-87
2020/12/15 07:57:43;;;;;;;9.87;4.43;;;12.00;99.90;;;;;;5052903;28;20253;-87
2020/12/15 08:00:11;;;;;;;10.83;4.70;;;12.00;99.90;;;;;;5039742;28;20221;-86
2020/12/15 08:02:41;;;;;;;11.63;5.10;;;12.00;99.90;;;;;;5040377;28;20261;-86
2020/12/15 08:05:21;;;;;;;11.43;4.70;;;12.00;99.90;;;;;;5054661;28;20174;-86
2020/12/15 08:07:51;;;;;;;9.33;4.97;;;12.00;99.90;;;;;;5044937;28;20201;-86
2020/12/15 08:10:25;;;;;;;9.60;4.50;;;11.90;99.90;;;;;;5037252;28;20182;-87
2020/12/15 08:12:54;;;;;;;8.87;4.90;;;11.80;99.90;;;;;;5050847;28;20203;-87
2020/12/15 08:15:20;;;;;;;9.90;5.07;;;11.90;99.90;;;;;;5038097;28;20197;-87
2020/12/15 08:17:48;;;;;;;9.50;4.93;;;12.00;99.90;;;;;;5039111;28;20226;-87
2020/12/15 08:20:17;;;;;;;11.97;5.63;;;12.00;99.90;;;;;;5055622;28;20206;-87
2020/12/15 08:22:45;;;;;;;11.80;5.47;;;12.10;99.90;;;;;;5055038;28;20192;-87
2020/12/15 08:25:16;;;;;;;11.37;5.27;;;12.00;99.90;;;;;;5033868;28;20542;-86
2020/12/15 08:27:42;;;;;;;10.10;5.53;;;11.90;99.90;;;;;;5031832;28;20240;-84
2020/12/15 08:30:21;;;;;;;10.83;5.83;;;12.00;99.90;;;;;;5023686;28;20563;-86
2020/12/15 08:32:49;;;;;;;10.87;6.23;;;12.00;99.90;;;;;;5048545;28;20194;-87
2020/12/15 08:35:25;;;;;;;11.97;7.03;;;12.00;99.90;;;;;;5041528;28;20277;-87
2020/12/15 08:38:00;;;;;;;13.53;6.40;;;12.10;99.90;;;;;;5045633;28;20238;-87
2020/12/15 08:40:27;;;;;;;13.17;6.67;;;12.10;99.90;;;;;;5019284;28;20180;-87
2020/12/15 08:43:03;;;;;;;11.20;6.53;;;12.00;99.90;;;;;;5013241;28;20191;-87
2020/12/15 08:45:30;;;;;;;13.77;6.73;;;12.10;99.90;;;;;;5028551;28;20261;-86
2020/12/15 08:47:57;;;;;;;11.83;7.00;;;12.10;99.90;;;;;;5047200;28;20199;-86
2020/12/15 08:50:28;;;;;;;13.40;7.27;;;12.20;99.90;;;;;;5023738;28;21000;-86
2020/12/15 08:53:06;;;;;;;12.43;7.53;;;12.10;99.90;;;;;;5015098;28;20270;-87
2020/12/15 08:55:33;;;;;;;14.20;6.97;;;12.20;99.90;;;;;;5010318;28;20193;-87
2020/12/15 08:58:03;;;;;;;14.20;7.47;;;12.30;99.90;;;;;;5013057;28;20274;-86
2020/12/15 09:00:33;;;;;;;13.97;8.07;;;12.40;99.90;;;;;;5024637;28;20192;-87
2020/12/15 09:03:15;;;;;;;14.80;8.40;;;12.50;99.90;;;;;;5043358;28;20178;-86
2020/12/15 09:05:53;;;;;;;14.20;8.20;;;12.40;99.90;;;;;;5038469;28;20642;-86
2020/12/15 09:08:20;;;;;;;14.03;7.93;;;12.40;99.90;;;;;;5027272;28;20219;-86
2020/12/15 09:10:47;;;;;;;13.97;8.27;;;12.40;99.90;;;;;;5015289;28;20279;-85
2020/12/15 09:13:13;;;;;;;17.53;8.43;;;12.40;99.90;;;;;;5052530;28;20193;-85
2020/12/15 09:15:52;;;;;;;17.03;8.20;;;12.50;99.90;;;;;;5015183;28;20239;-86
2020/12/15 09:18:36;;;;;;;15.43;8.37;;;12.60;99.90;;;;;;5006881;28;20672;-86
2020/12/15 09:21:11;;;;;;;17.13;8.10;;;12.50;99.90;;;;;;5063068;28;20200;-86
2020/12/15 09:23:37;;;;;;;17.07;8.13;;;12.50;99.90;;;;;;5013287;28;20189;-86
2020/12/15 09:26:03;;;;;;;14.20;8.50;;;12.60;99.90;;;;;;5019378;28;20227;-86
2020/12/15 09:28:29;;;;;;;15.83;8.47;;;12.60;99.90;;;;;;5014540;28;20213;-86
2020/12/15 09:30:55;;;;;;;14.37;8.47;;;12.70;99.90;;;;;;5042143;28;20243;-86
2020/12/15 09:33:21;;;;;;;19.63;9.30;;;12.80;99.90;;;;;;5008034;28;20195;-86
2020/12/15 09:35:47;;;;;;;13.70;8.77;;;12.80;99.90;;;;;;5016124;28;20193;-86
2020/12/15 09:38:16;;;;;;;45.47;12.40;;;12.70;99.90;;;;;;5018615;28;20206;-86
2020/12/15 09:40:42;;;;;;;20.97;9.60;;;12.80;99.90;;;;;;5016983;28;20200;-86
2020/12/15 09:43:08;;;;;;;75.13;13.97;;;12.80;99.90;;;;;;5005315;28;20216;-86
2020/12/15 09:45:34;;;;;;;20.23;9.70;;;12.90;99.90;;;;;;5015159;28;20193;-85
2020/12/15 09:48:02;;;;;;;16.67;9.63;;;12.80;99.90;;;;;;5012253;28;20207;-86
2020/12/15 09:50:29;;;;;;;16.93;9.37;;;12.80;99.90;;;;;;5032351;28;20276;-86
2020/12/15 09:52:58;;;;;;;18.23;9.40;;;12.80;99.90;;;;;;5061027;28;20224;-86
2020/12/15 09:55:27;;;;;;;19.80;10.43;;;12.80;99.90;;;;;;5011726;28;20215;-86
2020/12/15 09:57:53;;;;;;;17.23;10.87;;;12.90;99.90;;;;;;5015040;28;20293;-86
2020/12/15 10:00:19;;;;;;;17.43;10.07;;;12.90;99.90;;;;;;5007198;28;20711;-86
2020/12/15 10:02:44;;;;;;;18.47;10.67;;;12.80;99.90;;;;;;5011606;28;20170;-85
2020/12/15 10:05:10;;;;;;;19.23;11.67;;;12.70;99.90;;;;;;5022324;28;20643;-87
2020/12/15 10:07:37;;;;;;;20.17;10.43;;;12.70;99.90;;;;;;5014795;28;20190;-86
2020/12/15 10:10:04;;;;;;;18.93;11.73;;;12.80;99.90;;;;;;5006155;28;20189;-86
2020/12/15 10:12:30;;;;;;;18.27;11.10;;;12.80;99.90;;;;;;5013773;28;21254;-86
2020/12/15 10:14:56;;;;;;;20.07;11.33;;;12.70;99.90;;;;;;5039463;28;20211;-85
2020/12/15 10:17:22;;;;;;;17.80;11.03;;;12.60;99.90;;;;;;5008125;28;20200;-86
2020/12/15 10:19:47;;;;;;;17.33;11.10;;;12.70;99.90;;;;;;5028111;28;20242;-87
2020/12/15 10:22:14;;;;;;;18.53;11.37;;;12.70;99.90;;;;;;5007391;28;20631;-86
2020/12/15 10:24:39;;;;;;;19.67;11.30;;;12.60;99.90;;;;;;5027032;28;20189;-87
2020/12/15 10:27:05;;;;;;;18.40;11.37;;;12.50;99.90;;;;;;5035851;28;20228;-86
2020/12/15 10:29:31;;;;;;;20.47;11.07;;;12.60;99.90;;;;;;5082799;28;20301;-85
2020/12/15 10:31:57;;;;;;;17.57;10.87;;;12.60;99.90;;;;;;5070447;28;20593;-86
2020/12/15 10:34:23;;;;;;;18.70;11.20;;;12.50;99.90;;;;;;5075208;28;20192;-86
2020/12/15 10:36:49;;;;;;;18.70;11.00;;;12.50;99.90;;;;;;5037745;28;20187;-85
2020/12/15 10:39:16;;;;;;;20.07;11.20;;;12.50;99.90;;;;;;5038226;28;20299;-86
2020/12/15 10:41:42;;;;;;;19.43;10.67;;;12.50;99.90;;;;;;5068104;28;20186;-86
2020/12/15 10:44:14;;;;;;;17.47;10.83;;;12.70;99.90;;;;;;5039586;28;20229;-85
2020/12/15 10:46:45;;;;;;;20.40;10.50;;;12.70;99.90;;;;;;5069986;28;20179;-86
2020/12/15 10:49:11;;;;;;;17.03;11.30;;;12.70;99.90;;;;;;5042151;28;20210;-86
2020/12/15 10:51:39;;;;;;;16.47;10.40;;;12.70;99.90;;;;;;5038827;28;20191;-86
2020/12/15 10:54:05;;;;;;;16.10;10.17;;;12.70;99.90;;;;;;5075415;28;20180;-86
2020/12/15 10:56:32;;;;;;;17.10;11.20;;;12.80;99.90;;;;;;5072995;28;20191;-86
2020/12/15 10:58:58;;;;;;;17.47;10.50;;;13.00;99.90;;;;;;5040044;28;20207;-87
2020/12/15 11:01:24;;;;;;;18.90;11.40;;;13.00;99.90;;;;;;5069163;28;20180;-86
2020/12/15 11:03:50;;;;;;;19.10;11.90;;;13.10;99.90;;;;;;5070469;28;20272;-86
2020/12/15 11:06:16;;;;;;;19.27;11.33;;;13.10;99.90;;;;;;5054902;28;20618;-86
2020/12/15 11:08:41;;;;;;;15.07;9.90;;;13.10;99.90;;;;;;5055757;28;20226;-87
2020/12/15 11:11:10;;;;;;;17.03;9.93;;;13.10;99.90;;;;;;5072910;28;20194;-86
2020/12/15 11:13:36;;;;;;;17.37;10.03;;;13.20;99.90;;;;;;5055717;28;20188;-86
2020/12/15 11:16:02;;;;;;;20.03;10.40;;;13.20;99.90;;;;;;5072519;28;20559;-86
2020/12/15 11:18:27;;;;;;;14.90;9.07;;;13.20;99.90;;;;;;5039963;28;20207;-85
2020/12/15 11:20:53;;;;;;;17.43;10.17;;;13.20;99.90;;;;;;5040339;28;20184;-86
2020/12/15 11:23:18;;;;;;;15.50;9.97;;;13.20;99.90;;;;;;5038586;28;20184;-86
2020/12/15 11:25:47;;;;;;;19.10;10.60;;;13.20;99.90;;;;;;5041531;28;20643;-87
2020/12/15 11:28:13;;;;;;;16.03;10.00;;;13.20;99.90;;;;;;5089690;28;20636;-84
2020/12/15 11:30:39;;;;;;;17.23;9.57;;;13.20;99.90;;;;;;5075115;28;20283;-86
2020/12/15 11:33:05;;;;;;;16.47;9.60;;;13.40;99.90;;;;;;5051036;28;20180;-86
2020/12/15 11:35:33;;;;;;;15.73;9.53;;;13.40;99.90;;;;;;5059432;28;20210;-87
2020/12/15 11:38:00;;;;;;;17.23;9.07;;;13.40;99.90;;;;;;5066392;28;20207;-85
2020/12/15 11:40:26;;;;;;;15.67;8.83;;;13.30;99.90;;;;;;5071185;28;20187;-87
2020/12/15 11:42:55;;;;;;;14.60;9.20;;;13.20;99.90;;;;;;5063912;28;20175;-86
2020/12/15 11:45:22;;;;;;;16.03;8.93;;;13.10;99.90;;;;;;5069960;28;20559;-87
2020/12/15 11:47:47;;;;;;;14.83;9.13;;;13.10;99.90;;;;;;5056111;28;20187;-85
2020/12/15 11:50:13;;;;;;;14.03;9.60;;;13.10;99.90;;;;;;5038498;28;20179;-87
2020/12/15 11:52:38;;;;;;;14.70;9.17;;;13.20;99.90;;;;;;5072366;28;20679;-86
2020/12/15 11:55:05;;;;;;;16.10;9.90;;;13.30;99.90;;;;;;5055434;28;20192;-86
2020/12/15 11:57:30;;;;;;;15.07;9.63;;;13.50;99.90;;;;;;5089533;28;20184;-86
2020/12/15 11:59:56;;;;;;;15.90;9.50;;;13.60;99.90;;;;;;5055180;28;20179;-87
2020/12/15 12:02:22;;;;;;;16.07;8.90;;;13.80;99.90;;;;;;5069923;28;20172;-87
2020/12/15 12:04:47;;;;;;;16.20;9.67;;;14.00;99.90;;;;;;5055855;28;20181;-87
2020/12/15 12:07:13;;;;;;;14.43;9.30;;;14.00;99.90;;;;;;5042934;28;20172;-87
2020/12/15 12:09:39;;;;;;;13.67;9.13;;;14.10;99.90;;;;;;5039510;28;20171;-87
2020/12/15 12:12:05;;;;;;;14.57;8.87;;;14.10;99.90;;;;;;5073786;28;20982;-87
2020/12/15 12:14:31;;;;;;;13.40;8.77;;;14.00;99.90;;;;;;5054665;28;20183;-88
2020/12/15 12:16:57;;;;;;;14.00;9.00;;;14.10;99.90;;;;;;5055953;28;20204;-88
2020/12/15 12:19:22;;;;;;;16.30;9.37;;;14.10;99.90;;;;;;5040785;28;20205;-87
2020/12/15 12:21:48;;;;;;;14.00;9.37;;;14.10;99.90;;;;;;5037090;28;20183;-87
2020/12/15 12:24:14;;;;;;;13.77;9.43;;;14.10;99.90;;;;;;5055128;28;20546;-87
2020/12/15 12:26:39;;;;;;;15.37;9.53;;;14.20;99.90;;;;;;5056138;28;20277;-87
2020/12/15 12:29:05;;;;;;;15.53;9.80;;;14.20;99.90;;;;;;5053315;28;20264;-88
2020/12/15 12:31:31;;;;;;;19.67;10.20;;;14.20;99.90;;;;;;5040133;28;20192;-87
2020/12/15 12:33:56;;;;;;;14.60;10.00;;;14.30;99.90;;;;;;5071454;28;20573;-87
2020/12/15 12:36:22;;;;;;;15.10;10.07;;;14.30;99.90;;;;;;5068372;28;20188;-86
2020/12/15 12:38:48;;;;;;;19.97;11.83;;;14.30;99.90;;;;;;5055684;28;20208;-86
2020/12/15 12:41:15;;;;;;;19.90;12.30;;;14.30;99.90;;;;;;5071166;28;20227;-87
2020/12/15 12:43:43;;;;;;;15.33;10.50;;;14.30;99.90;;;;;;5074794;28;20162;-87
2020/12/15 12:46:14;;;;;;;15.53;10.27;;;14.30;99.90;;;;;;5042403;28;20668;-87
2020/12/15 12:48:40;;;;;;;19.13;10.70;;;14.20;99.90;;;;;;5071213;28;20200;-88
2020/12/15 12:51:06;;;;;;;18.73;11.30;;;14.20;99.90;;;;;;5055218;28;20189;-87